createdAt,value
2022-09-30T00:00:40.044Z,74.64
2022-09-30T00:03:06.596Z,74.57
2022-09-30T00:05:33.078Z,75.16
2022-09-30T00:07:59.618Z,75.18
2022-09-30T00:10:26.117Z,74.40
2022-09-30T00:12:53.392Z,75.55
2022-09-30T00:15:20.383Z,74.77
2022-09-30T00:17:46.910Z,74.81
2022-09-30T00:20:14.743Z,75.30
2022-09-30T00:22:41.551Z,75.09
2022-09-30T00:25:08.269Z,74.71
2022-09-30T00:27:34.765Z,75.06
2022-09-30T00:30:01.235Z,75.10
2022-09-30T00:32:27.736Z,74.85
2022-09-30T00:34:54.253Z,75.17
2022-09-30T00:37:20.736Z,75.68
2022-09-30T00:39:47.547Z,75.86
2022-09-30T00:42:15.557Z,75.42
2022-09-30T00:44:51.053Z,76.01
2022-09-30T00:47:56.282Z,76.40
2022-09-30T00:50:25.816Z,75.21
2022-09-30T00:53:00.493Z,75.04
2022-09-30T00:55:33.908Z,76.27
2022-09-30T00:58:03.748Z,75.23
2022-09-30T01:00:30.323Z,75.47
2022-09-30T01:02:57.367Z,76.07
2022-09-30T01:05:26.488Z,75.74
2022-09-30T01:07:56.546Z,75.96
2022-09-30T01:10:23.047Z,76.17
2022-09-30T01:12:49.704Z,75.82
2022-09-30T01:15:16.440Z,76.14
2022-09-30T01:17:54.242Z,75.74
2022-09-30T01:20:29.847Z,76.31
2022-09-30T01:23:17.761Z,76.82
2022-09-30T01:25:50.404Z,76.74
2022-09-30T01:28:16.825Z,76.41
2022-09-30T01:31:02.175Z,77.32
2022-09-30T01:34:13.809Z,76.84
2022-09-30T01:37:21.722Z,77.14
2022-09-30T01:39:55.476Z,76.92
2022-09-30T01:42:36.785Z,76.87
2022-09-30T01:45:06.261Z,76.86
2022-09-30T01:47:44.382Z,77.15
2022-09-30T01:50:48.899Z,76.41
2022-09-30T01:53:35.891Z,77.38
2022-09-30T01:56:17.497Z,77.16
2022-09-30T01:58:56.693Z,77.05
2022-09-30T02:01:48.494Z,77.12
2022-09-30T02:04:21.092Z,77.04
2022-09-30T02:06:55.328Z,77.48
2022-09-30T02:09:24.559Z,77.54
2022-09-30T02:11:54.021Z,77.21
2022-09-30T02:14:29.151Z,76.92
2022-09-30T02:17:02.762Z,77.73
2022-09-30T02:20:00.679Z,77.54
2022-09-30T02:22:40.728Z,78.07
2022-09-30T02:25:09.954Z,77.37
2022-09-30T02:27:43.103Z,77.55
2022-09-30T02:30:12.607Z,77.78
2022-09-30T02:33:02.513Z,78.24
2022-09-30T02:35:57.720Z,78.15
2022-09-30T02:38:37.150Z,78.30
2022-09-30T02:41:04.774Z,78.15
2022-09-30T02:43:32.069Z,77.45
2022-09-30T02:46:23.039Z,78.47
2022-09-30T02:49:02.447Z,77.38
2022-09-30T02:51:28.858Z,78.37
2022-09-30T02:54:09.931Z,78.43
2022-09-30T02:57:09.332Z,78.29
2022-09-30T02:59:35.847Z,77.57
2022-09-30T03:02:03.093Z,78.01
2022-09-30T03:04:34.375Z,77.61
2022-09-30T03:07:01.221Z,77.71
2022-09-30T03:09:28.344Z,77.88
2022-09-30T03:12:05.889Z,77.68
2022-09-30T03:14:41.526Z,78.18
2022-09-30T03:17:27.075Z,78.13
2022-09-30T03:20:14.679Z,77.02
2022-09-30T03:23:29.409Z,77.71
2022-09-30T03:26:14.598Z,77.59
2022-09-30T03:28:47.075Z,77.79
2022-09-30T03:31:33.265Z,77.48
2022-09-30T03:34:19.393Z,78.03
2022-09-30T03:37:13.948Z,77.45
2022-09-30T03:39:49.247Z,77.81
2022-09-30T03:42:30.627Z,77.31
2022-09-30T03:45:17.384Z,78.16
2022-09-30T03:47:49.637Z,77.45
2022-09-30T03:50:20.693Z,77.88
2022-09-30T03:52:48.540Z,77.81
2022-09-30T03:55:16.807Z,77.78
2022-09-30T03:57:44.659Z,78.03
2022-09-30T04:00:12.913Z,77.90
2022-09-30T04:02:39.406Z,78.01
2022-09-30T04:05:06.807Z,77.84
2022-09-30T04:07:33.289Z,77.01
2022-09-30T04:09:59.802Z,77.07
2022-09-30T04:12:26.757Z,77.29
2022-09-30T04:14:53.238Z,77.72
2022-09-30T04:17:19.687Z,77.04
2022-09-30T04:19:46.138Z,77.06
2022-09-30T04:22:13.742Z,77.77
2022-09-30T04:24:40.381Z,76.99
2022-09-30T04:27:06.922Z,78.06
2022-09-30T04:29:33.425Z,78.01
2022-09-30T04:31:59.994Z,77.94
2022-09-30T04:34:26.470Z,77.39
2022-09-30T04:36:52.907Z,77.50
2022-09-30T04:39:19.426Z,77.40
2022-09-30T04:41:46.286Z,78.25
2022-09-30T04:44:13.550Z,78.82
2022-09-30T04:46:40.061Z,77.79
2022-09-30T04:49:09.289Z,78.23
2022-09-30T04:51:36.783Z,78.65
2022-09-30T04:54:03.621Z,78.76
2022-09-30T04:56:30.117Z,79.09
2022-09-30T04:58:56.717Z,78.90
2022-09-30T05:01:23.337Z,78.46
2022-09-30T05:03:50.733Z,78.30
2022-09-30T05:06:17.871Z,78.42
2022-09-30T05:08:45.995Z,78.64
2022-09-30T05:11:18.938Z,78.76
2022-09-30T05:13:46.034Z,79.07
2022-09-30T05:16:13.651Z,79.04
2022-09-30T05:18:42.539Z,79.27
2022-09-30T05:21:10.099Z,79.65
2022-09-30T05:23:36.943Z,79.10
2022-09-30T05:26:03.589Z,79.94
2022-09-30T05:28:31.343Z,79.93
2022-09-30T05:31:00.045Z,79.72
2022-09-30T05:33:30.998Z,79.39
2022-09-30T05:36:02.403Z,80.18
2022-09-30T05:38:29.687Z,80.29
2022-09-30T05:40:56.446Z,80.14
2022-09-30T05:43:22.952Z,80.52
2022-09-30T05:45:56.441Z,80.41
2022-09-30T05:48:23.852Z,80.34
2022-09-30T05:50:54.886Z,80.61
2022-09-30T05:53:21.376Z,80.29
2022-09-30T05:55:48.654Z,80.42
2022-09-30T05:58:15.798Z,80.57
2022-09-30T06:00:43.670Z,80.67
2022-09-30T06:03:10.759Z,80.41
2022-09-30T06:05:37.737Z,80.48
2022-09-30T06:08:07.093Z,80.32
2022-09-30T06:10:34.680Z,80.55
2022-09-30T06:13:04.541Z,80.78
2022-09-30T06:15:31.573Z,80.79
2022-09-30T06:17:58.415Z,80.76
2022-09-30T06:20:25.265Z,80.54
2022-09-30T06:22:51.783Z,80.72
2022-09-30T06:25:18.384Z,80.65
2022-09-30T06:27:46.823Z,80.55
2022-09-30T06:30:14.383Z,81.48
2022-09-30T06:32:40.885Z,80.72
2022-09-30T06:35:07.752Z,81.03
2022-09-30T06:37:36.818Z,80.97
2022-09-30T06:40:07.838Z,81.06
2022-09-30T06:42:35.013Z,80.47
2022-09-30T06:45:01.716Z,80.75
2022-09-30T06:47:28.224Z,81.11
2022-09-30T06:49:58.807Z,81.25
2022-09-30T06:52:26.584Z,81.10
2022-09-30T06:54:56.451Z,80.77
2022-09-30T06:57:24.884Z,80.99
2022-09-30T06:59:51.907Z,80.72
2022-09-30T07:02:18.453Z,81.04
2022-09-30T07:04:44.923Z,80.57
2022-09-30T07:07:12.046Z,80.74
2022-09-30T07:09:38.752Z,80.65
2022-09-30T07:12:07.317Z,81.27
2022-09-30T07:14:36.020Z,81.10
2022-09-30T07:17:04.630Z,80.16
2022-09-30T07:19:32.104Z,80.55
2022-09-30T07:22:18.561Z,80.35
2022-09-30T07:24:45.040Z,79.91
2022-09-30T07:27:13.511Z,80.92
2022-09-30T07:30:07.684Z,79.67
2022-09-30T07:32:30.686Z,79.70
2022-09-30T07:34:57.242Z,80.21
2022-09-30T07:37:25.341Z,79.77
2022-09-30T07:39:52.242Z,80.52
2022-09-30T07:42:23.214Z,79.26
2022-09-30T07:44:51.796Z,78.97
2022-09-30T07:47:18.606Z,79.19
2022-09-30T07:49:45.679Z,80.12
2022-09-30T07:52:13.423Z,79.93
2022-09-30T07:54:43.342Z,79.54
2022-09-30T07:57:12.254Z,79.57
2022-09-30T07:59:40.893Z,79.68
2022-09-30T08:02:13.694Z,80.07
2022-09-30T08:04:43.663Z,78.32
2022-09-30T08:07:12.043Z,78.45
2022-09-30T08:09:38.661Z,78.79
2022-09-30T08:12:05.492Z,77.82
2022-09-30T08:14:32.625Z,77.76
2022-09-30T08:17:00.682Z,78.04
2022-09-30T08:19:29.279Z,76.99
2022-09-30T08:21:56.530Z,76.79
2022-09-30T08:24:24.415Z,76.69
2022-09-30T08:26:52.366Z,75.71
2022-09-30T08:29:35.712Z,75.67
2022-09-30T08:32:05.597Z,75.37
2022-09-30T08:34:35.335Z,74.75
2022-09-30T08:37:07.505Z,74.22
2022-09-30T08:39:35.718Z,74.18
2022-09-30T08:42:36.602Z,74.38
2022-09-30T08:45:18.852Z,74.61
2022-09-30T08:48:05.362Z,74.02
2022-09-30T08:50:52.939Z,73.63
2022-09-30T08:53:26.310Z,73.14
2022-09-30T08:55:57.111Z,73.15
2022-09-30T08:58:29.306Z,73.02
2022-09-30T09:01:01.177Z,72.70
2022-09-30T09:03:30.933Z,71.71
2022-09-30T09:06:11.244Z,72.20
2022-09-30T09:08:53.286Z,71.41
2022-09-30T09:11:43.449Z,72.10
2022-09-30T09:14:19.700Z,72.15
2022-09-30T09:17:15.290Z,71.68
2022-09-30T09:19:48.283Z,71.66
2022-09-30T09:22:15.185Z,70.22
2022-09-30T09:24:47.445Z,70.03
2022-09-30T09:27:20.917Z,69.04
2022-09-30T09:30:22.099Z,69.24
2022-09-30T09:32:58.058Z,69.30
2022-09-30T09:35:46.421Z,68.31
2022-09-30T09:38:35.949Z,68.49
2022-09-30T09:41:29.365Z,68.45
2022-09-30T09:44:33.217Z,68.49
2022-09-30T09:47:05.868Z,67.47
2022-09-30T09:49:40.032Z,67.72
2022-09-30T09:52:25.042Z,67.30
2022-09-30T09:54:56.579Z,68.15
2022-09-30T09:57:27.871Z,67.30
2022-09-30T10:02:32.536Z,66.04
2022-09-30T10:05:03.828Z,66.16
2022-09-30T10:07:34.128Z,66.45
2022-09-30T10:10:23.164Z,66.86
2022-09-30T10:12:50.605Z,66.83
2022-09-30T10:15:22.894Z,66.68
2022-09-30T10:17:55.551Z,66.47
2022-09-30T10:20:33.509Z,66.24
2022-09-30T10:23:02.678Z,65.42
2022-09-30T10:25:29.546Z,65.80
2022-09-30T10:28:02.087Z,66.91
2022-09-30T10:30:49.177Z,65.92
2022-09-30T10:33:18.550Z,65.87
2022-09-30T10:35:52.284Z,64.45
2022-09-30T10:38:18.863Z,64.68
2022-09-30T10:40:50.531Z,64.66
2022-09-30T10:43:49.977Z,64.31
2022-09-30T10:46:27.466Z,65.10
2022-09-30T10:48:56.249Z,64.90
2022-09-30T10:51:30.026Z,63.83
2022-09-30T10:53:57.284Z,64.09
2022-09-30T10:56:44.278Z,63.49
2022-09-30T10:59:29.873Z,63.34
2022-09-30T11:02:06.118Z,62.75
2022-09-30T11:04:39.295Z,62.18
2022-09-30T11:07:17.045Z,62.55
2022-09-30T11:09:55.146Z,61.88
2022-09-30T11:12:33.666Z,61.61
2022-09-30T11:15:13.035Z,60.34
2022-09-30T11:17:49.976Z,59.77
2022-09-30T11:20:32.579Z,60.80
2022-09-30T11:23:06.014Z,60.26
2022-09-30T11:25:43.676Z,58.87
2022-09-30T11:28:32.739Z,58.62
2022-09-30T11:31:06.174Z,57.97
2022-09-30T11:34:16.925Z,56.60
2022-09-30T11:36:49.426Z,57.90
2022-09-30T11:39:34.732Z,56.70
2022-09-30T11:42:40.231Z,56.43
2022-09-30T11:45:30.321Z,57.04
2022-09-30T11:48:30.520Z,57.33
2022-09-30T11:51:07.660Z,57.14
2022-09-30T11:53:46.732Z,57.52
2022-09-30T11:56:55.445Z,56.90
2022-09-30T11:59:31.915Z,57.46
2022-09-30T12:02:01.867Z,56.88
2022-09-30T12:04:44.335Z,56.70
2022-09-30T12:07:34.775Z,56.49
2022-09-30T12:10:08.072Z,57.46
2022-09-30T12:12:34.925Z,57.16
2022-09-30T12:15:05.764Z,57.34
2022-09-30T12:17:46.476Z,56.93
2022-09-30T12:20:26.076Z,56.52
2022-09-30T12:22:58.964Z,56.26
2022-09-30T12:25:37.782Z,55.55
2022-09-30T12:28:52.324Z,56.05
2022-09-30T12:32:01.169Z,55.03
2022-09-30T12:35:24.354Z,56.17
2022-09-30T12:38:34.019Z,55.42
2022-09-30T12:41:26.775Z,54.93
2022-09-30T12:43:59.186Z,55.87
2022-09-30T12:46:52.938Z,54.57
2022-09-30T12:49:25.034Z,55.79
2022-09-30T12:51:57.532Z,56.14
2022-09-30T12:54:39.455Z,55.35
2022-09-30T12:57:09.251Z,55.51
2022-09-30T12:59:58.051Z,56.63
2022-09-30T13:02:39.617Z,56.87
2022-09-30T13:05:59.230Z,56.75
2022-09-30T13:08:41.735Z,57.35
2022-09-30T13:11:31.271Z,57.56
2022-09-30T13:14:12.613Z,57.24
2022-09-30T13:17:07.382Z,57.56
2022-09-30T13:19:40.378Z,58.32
2022-09-30T13:22:24.096Z,58.78
2022-09-30T13:24:57.210Z,58.31
2022-09-30T13:27:35.893Z,58.24
2022-09-30T13:30:22.354Z,58.59
2022-09-30T13:33:25.327Z,58.28
2022-09-30T13:35:52.919Z,58.36
2022-09-30T13:38:32.805Z,58.12
2022-09-30T13:41:15.741Z,57.69
2022-09-30T13:44:06.810Z,58.50
2022-09-30T13:46:43.666Z,58.25
2022-09-30T13:49:39.217Z,58.11
2022-09-30T13:52:34.706Z,58.58
2022-09-30T13:55:09.567Z,58.47
2022-09-30T13:57:47.727Z,58.08
2022-09-30T14:00:17.934Z,58.69
2022-09-30T14:03:24.163Z,58.42
2022-09-30T14:05:56.870Z,58.30
2022-09-30T14:08:42.176Z,58.22
2022-09-30T14:11:38.457Z,58.12
2022-09-30T14:14:28.394Z,58.73
2022-09-30T14:17:19.277Z,58.99
2022-09-30T14:20:33.066Z,58.59
2022-09-30T14:23:00.050Z,58.96
2022-09-30T14:25:33.141Z,59.55
2022-09-30T14:28:04.894Z,59.72
2022-09-30T14:30:40.977Z,59.77
2022-09-30T14:33:12.115Z,61.32
2022-09-30T14:35:41.547Z,61.30
2022-09-30T14:38:17.925Z,62.00
2022-09-30T14:40:51.276Z,63.63
2022-09-30T14:43:21.793Z,63.84
2022-09-30T14:45:52.926Z,64.79
2022-09-30T14:48:42.239Z,66.90
2022-09-30T14:51:12.386Z,66.08
2022-09-30T14:54:02.597Z,69.88
2022-09-30T14:56:31.888Z,67.91
2022-09-30T14:59:00.852Z,69.77
2022-09-30T15:01:35.835Z,70.42
2022-09-30T15:04:16.701Z,73.59
2022-09-30T15:06:46.585Z,72.29
2022-09-30T15:09:21.663Z,73.20
2022-09-30T15:11:48.599Z,73.09
2022-09-30T15:14:23.749Z,73.66
2022-09-30T15:16:52.391Z,74.07
2022-09-30T15:19:26.135Z,75.13
2022-09-30T15:21:57.158Z,74.99
2022-09-30T15:24:30.371Z,75.04
2022-09-30T15:26:57.593Z,75.11
2022-09-30T15:29:24.270Z,75.64
2022-09-30T15:32:18.361Z,77.33
2022-09-30T15:34:45.989Z,76.48
2022-09-30T15:37:33.364Z,77.53
2022-09-30T15:40:23.899Z,76.96
2022-09-30T15:43:03.013Z,77.46
2022-09-30T15:45:36.936Z,77.82
2022-09-30T15:48:26.786Z,78.00
2022-09-30T15:51:34.128Z,79.65
2022-09-30T15:54:23.893Z,77.64
2022-09-30T15:57:02.381Z,77.64
2022-09-30T16:00:19.847Z,79.18
2022-09-30T16:03:18.298Z,79.36
2022-09-30T16:06:09.353Z,80.97
2022-09-30T16:09:05.458Z,80.73
2022-09-30T16:12:21.029Z,80.24
2022-09-30T16:15:12.280Z,80.08
2022-09-30T16:17:47.314Z,79.81
2022-09-30T16:20:22.189Z,79.00
2022-09-30T16:23:05.110Z,79.12
2022-09-30T16:25:33.660Z,79.64
2022-09-30T16:28:14.723Z,80.48
2022-09-30T16:30:44.610Z,80.43
2022-09-30T16:33:15.661Z,80.27
2022-09-30T16:35:50.079Z,80.86
2022-09-30T16:38:21.691Z,80.39
2022-09-30T16:41:03.831Z,80.69
2022-09-30T16:43:31.770Z,80.85
2022-09-30T16:46:10.651Z,81.38
2022-09-30T16:48:44.505Z,80.82
2022-09-30T16:51:16.891Z,81.14
2022-09-30T16:53:49.197Z,81.00
2022-09-30T16:56:20.334Z,81.78
2022-09-30T16:58:47.911Z,81.67
2022-09-30T17:01:23.110Z,82.49
2022-09-30T17:03:59.656Z,82.05
2022-09-30T17:06:41.265Z,82.47
2022-09-30T17:09:13.869Z,82.74
2022-09-30T17:11:46.023Z,82.62
2022-09-30T17:14:12.678Z,82.76
2022-09-30T17:16:39.391Z,83.26
2022-09-30T17:19:11.664Z,82.86
2022-09-30T17:21:39.739Z,83.35
2022-09-30T17:28:03.863Z,83.00
2022-09-30T17:31:07.968Z,82.92
2022-09-30T17:33:53.931Z,83.51
2022-09-30T17:36:41.309Z,84.07
2022-09-30T17:39:14.131Z,83.32
2022-09-30T17:42:07.317Z,83.96
2022-09-30T17:44:41.687Z,84.35
2022-09-30T17:47:08.220Z,83.26
2022-09-30T17:49:39.589Z,83.95
2022-09-30T17:52:09.653Z,84.10
2022-09-30T17:54:36.488Z,84.47
2022-09-30T17:57:11.117Z,84.29
2022-09-30T18:00:00.092Z,85.27
2022-09-30T18:03:45.891Z,85.46
2022-09-30T18:06:23.447Z,84.73
2022-09-30T18:08:50.666Z,84.82
2022-09-30T18:11:22.364Z,84.53
2022-09-30T18:14:00.359Z,84.56
2022-09-30T18:16:36.200Z,84.58
2022-09-30T18:19:09.639Z,85.26
2022-09-30T18:21:39.261Z,85.10
2022-09-30T18:24:06.948Z,84.67
2022-09-30T18:26:35.944Z,85.30
2022-09-30T18:29:03.302Z,84.75
2022-09-30T18:31:38.390Z,84.94
2022-09-30T18:34:10.955Z,85.07
2022-09-30T18:36:37.845Z,85.31
2022-09-30T18:39:04.462Z,85.20
2022-09-30T18:41:34.544Z,85.33
2022-09-30T18:44:02.838Z,85.39
2022-09-30T18:46:32.964Z,85.90
2022-09-30T18:48:59.716Z,85.65
2022-09-30T18:51:31.639Z,85.29
2022-09-30T18:54:00.429Z,85.21
2022-09-30T18:56:35.475Z,86.29
2022-09-30T18:59:04.510Z,86.29
2022-09-30T19:04:21.281Z,86.44
2022-09-30T19:06:48.290Z,86.15
2022-09-30T19:09:16.675Z,86.40
2022-09-30T19:11:44.991Z,86.30
2022-09-30T19:14:16.652Z,86.48
2022-09-30T19:16:46.325Z,86.24
2022-09-30T19:19:13.175Z,86.19
2022-09-30T19:21:40.599Z,86.74
2022-09-30T19:24:09.151Z,86.95
2022-09-30T19:26:40.259Z,86.16
2022-09-30T19:29:10.483Z,86.33
2022-09-30T19:31:37.633Z,86.48
2022-09-30T19:34:05.329Z,86.42
2022-09-30T19:36:45.519Z,86.52
2022-09-30T19:39:16.035Z,86.67
2022-09-30T19:41:42.533Z,86.17
2022-09-30T19:44:12.766Z,86.47
2022-09-30T19:46:47.744Z,86.73
2022-09-30T19:49:25.511Z,86.21
2022-09-30T19:51:58.451Z,86.40
2022-09-30T19:54:37.691Z,86.06
2022-09-30T19:57:06.689Z,86.75
2022-09-30T19:59:35.794Z,86.70
2022-09-30T20:02:02.490Z,87.10
2022-09-30T20:04:39.424Z,86.61
2022-09-30T20:07:06.082Z,87.37
2022-09-30T20:09:53.429Z,87.15
2022-09-30T20:12:24.017Z,86.55
2022-09-30T20:15:11.283Z,86.78
2022-09-30T20:17:38.111Z,86.82
2022-09-30T20:20:26.330Z,86.99
2022-09-30T20:22:56.306Z,86.58
2022-09-30T20:26:04.031Z,86.82
2022-09-30T20:28:33.875Z,87.47
2022-09-30T20:31:06.440Z,87.84
2022-09-30T20:33:40.150Z,87.39
2022-09-30T20:36:14.133Z,86.98
2022-09-30T20:38:49.912Z,86.96
2022-09-30T20:41:16.818Z,86.48
2022-09-30T20:43:45.995Z,86.36
2022-09-30T20:49:34.836Z,87.40
2022-09-30T20:52:08.078Z,87.08
2022-09-30T20:54:47.227Z,86.68
2022-09-30T20:57:19.775Z,86.80
2022-09-30T21:00:00.243Z,86.55
2022-09-30T21:02:36.713Z,86.87
2022-09-30T21:05:33.430Z,87.76
2022-09-30T21:08:07.493Z,86.65
2022-09-30T21:11:33.412Z,87.29
2022-09-30T21:13:37.288Z,87.29
2022-09-30T21:16:16.039Z,87.27
2022-09-30T21:22:11.360Z,86.84
2022-09-30T21:24:40.777Z,86.64
2022-09-30T21:27:08.116Z,87.46
2022-09-30T21:29:34.779Z,87.50
2022-09-30T21:32:32.059Z,87.68
2022-09-30T21:34:58.681Z,87.50
2022-09-30T21:37:35.680Z,87.45
2022-09-30T21:40:47.630Z,88.07
2022-09-30T21:43:27.490Z,87.54
2022-09-30T21:46:10.051Z,87.39
2022-09-30T21:49:14.017Z,87.57
2022-09-30T21:51:43.833Z,87.28
2022-09-30T21:54:18.406Z,87.54
2022-09-30T21:57:39.488Z,87.33
2022-09-30T22:00:12.633Z,87.18
2022-09-30T22:02:42.528Z,87.71
2022-09-30T22:05:20.707Z,87.07
2022-09-30T22:07:48.180Z,87.08
2022-09-30T22:10:15.176Z,87.61
2022-09-30T22:12:46.378Z,87.67
2022-09-30T22:15:15.557Z,86.82
2022-09-30T22:17:42.234Z,87.30
2022-09-30T22:20:09.665Z,86.80
2022-09-30T22:22:46.840Z,86.48
2022-09-30T22:25:17.091Z,86.75
2022-09-30T22:27:44.295Z,86.41
2022-09-30T22:30:11.089Z,86.13
2022-09-30T22:32:38.493Z,86.90
2022-09-30T22:35:24.479Z,86.52
2022-09-30T22:38:14.828Z,86.42
2022-09-30T22:40:41.491Z,86.77
2022-09-30T22:43:08.425Z,86.54
2022-09-30T22:45:36.242Z,86.69
2022-09-30T22:48:02.954Z,86.37
2022-09-30T22:50:38.271Z,86.38
2022-09-30T22:53:05.020Z,86.82
2022-09-30T22:55:39.382Z,86.63
2022-09-30T22:58:06.184Z,86.38
2022-09-30T23:00:42.079Z,85.74
2022-09-30T23:03:10.285Z,86.05
2022-09-30T23:05:40.546Z,86.08
2022-09-30T23:08:14.742Z,85.71
2022-09-30T23:10:52.128Z,86.17
2022-09-30T23:13:20.350Z,86.54
2022-09-30T23:15:51.794Z,85.63
2022-09-30T23:18:18.383Z,85.97
2022-09-30T23:20:58.488Z,86.63
2022-09-30T23:23:26.080Z,85.43
2022-09-30T23:26:20.859Z,86.50
2022-09-30T23:29:01.328Z,86.37
2022-09-30T23:31:34.585Z,86.01
2022-09-30T23:34:05.224Z,86.99
2022-09-30T23:36:38.849Z,87.04
2022-09-30T23:39:09.478Z,86.08
2022-09-30T23:41:51.565Z,85.68
2022-09-30T23:44:47.633Z,85.88
2022-09-30T23:47:22.570Z,86.21
2022-09-30T23:49:50.706Z,85.68
2022-09-30T23:52:17.914Z,85.96
2022-09-30T23:54:58.104Z,86.11
2022-09-30T23:57:24.805Z,86.37
